Time;durP1;ratioP1;P1;durP2;ratioP2;P2;SDS_P1;SDS_P2;PMS_P1;PMS_P2;Temp;Humidity;BMP_temperature;BMP_pressure;BME280_temperature;BME280_humidity;BME280_pressure;Samples;Min_cycle;Max_cycle;Signal;HPM_P1;HPM_P2
2021/07/30 00:02:03;;;;;;;;;9.00;7.50;;;;;18.08;63.26;100828.63;5022437;28;47765;-79
2021/07/30 00:04:28;;;;;;;;;7.25;5.75;;;;;18.06;63.89;100825.31;5022448;28;45427;-79
2021/07/30 00:06:54;;;;;;;;;9.00;7.25;;;;;18.04;63.61;100832.72;5020820;28;45894;-79
2021/07/30 00:09:19;;;;;;;;;6.75;6.00;;;;;18.03;63.70;100828.41;5022915;28;45392;-79
2021/07/30 00:11:44;;;;;;;;;8.75;8.00;;;;;18.01;63.65;100823.22;5025822;28;46527;-79
2021/07/30 00:14:10;;;;;;;;;10.75;8.50;;;;;18.01;64.12;100823.22;5025224;28;45437;-79
2021/07/30 00:16:35;;;;;;;;;8.25;8.25;;;;;17.97;63.66;100816.63;5020200;28;48337;-79
2021/07/30 00:19:01;;;;;;;;;5.50;4.75;;;;;17.96;63.24;100823.00;5025844;28;45513;-78
2021/07/30 00:21:27;;;;;;;;;7.00;5.75;;;;;17.95;63.75;100820.50;5025542;28;48797;-79
2021/07/30 00:23:52;;;;;;;;;8.25;6.50;;;;;17.93;63.66;100825.25;5024255;28;45424;-78
2021/07/30 00:26:18;;;;;;;;;9.00;7.50;;;;;17.91;63.25;100821.94;5026282;28;45498;-79
2021/07/30 00:28:43;;;;;;;;;6.00;5.50;;;;;17.88;62.99;100822.31;5020281;28;45902;-79
2021/07/30 00:31:08;;;;;;;;;8.75;7.00;;;;;17.86;62.95;100814.50;5019140;28;60548;-79
2021/07/30 00:33:35;;;;;;;;;9.50;8.00;;;;;17.85;63.24;100815.50;5026298;28;45577;-78
2021/07/30 00:36:00;;;;;;;;;6.00;5.75;;;;;17.82;64.42;100803.34;5021180;28;45451;-78
2021/07/30 00:38:25;;;;;;;;;8.75;7.00;;;;;17.79;63.83;100806.38;5027248;28;45766;-79
2021/07/30 00:40:51;;;;;;;;;6.50;6.50;;;;;17.78;63.46;100806.59;5024063;28;47449;-78
2021/07/30 00:43:16;;;;;;;;;8.25;8.25;;;;;17.75;63.46;100797.09;5023161;28;45672;-79
2021/07/30 00:45:42;;;;;;;;;7.25;7.25;;;;;17.75;63.46;100801.63;5021902;28;45796;-79
2021/07/30 00:48:08;;;;;;;;;13.00;7.50;;;;;17.74;64.26;100799.97;5025230;28;45526;-79
2021/07/30 00:50:34;;;;;;;;;11.00;7.00;;;;;17.74;64.08;100794.63;5027615;28;45692;-79
2021/07/30 00:52:59;;;;;;;;;7.50;7.00;;;;;17.71;63.64;100790.50;5024862;28;45536;-80
2021/07/30 00:55:25;;;;;;;;;6.50;4.75;;;;;17.69;63.87;100803.25;5021959;28;45498;-79
2021/07/30 00:57:53;;;;;;;;;7.75;7.00;;;;;17.68;63.94;100796.25;5022634;28;45835;-79
2021/07/30 01:00:20;;;;;;;;;7.00;6.50;;;;;17.66;64.24;100794.78;5025576;28;45719;-79
2021/07/30 01:02:46;;;;;;;;;9.50;7.50;;;;;17.62;64.33;100781.81;5025003;28;45576;-79
2021/07/30 01:05:11;;;;;;;;;15.50;7.25;;;;;17.63;64.96;100790.66;5023374;28;45597;-79
2021/07/30 01:07:38;;;;;;;;;10.00;7.50;;;;;17.61;64.62;100782.84;5022205;28;45795;-79
2021/07/30 01:10:04;;;;;;;;;7.75;7.25;;;;;17.59;64.33;100790.22;5024294;28;46714;-79
2021/07/30 01:12:30;;;;;;;;;6.50;5.00;;;;;17.56;64.34;100787.13;5023498;28;45608;-79
2021/07/30 01:14:55;;;;;;;;;10.25;8.50;;;;;17.53;64.70;100782.13;5005698;28;45772;-78
2021/07/30 01:17:21;;;;;;;;;8.75;6.50;;;;;17.53;64.42;100779.47;5024729;28;45477;-79
2021/07/30 01:19:47;;;;;;;;;8.00;6.50;;;;;17.50;64.51;100778.00;5007041;28;46193;-79
2021/07/30 01:22:24;;;;;;;;;8.00;7.50;;;;;17.50;64.40;100782.53;5023852;28;45477;-79
2021/07/30 01:24:50;;;;;;;;;11.00;8.00;;;;;17.50;64.91;100787.88;5015553;28;45916;-78
2021/07/30 01:27:15;;;;;;;;;8.75;6.50;;;;;17.48;65.59;100789.91;5022515;28;45620;-79
2021/07/30 01:29:41;;;;;;;;;10.50;8.00;;;;;17.45;66.15;100771.59;5021652;28;46390;-79
2021/07/30 01:32:07;;;;;;;;;9.00;9.00;;;;;17.45;66.27;100774.28;5023221;28;45554;-79
2021/07/30 01:34:32;;;;;;;;;9.25;6.75;;;;;17.42;66.68;100764.81;5022491;28;45524;-78
2021/07/30 01:36:58;;;;;;;;;8.25;6.50;;;;;17.41;66.34;100772.00;5020919;28;45546;-79
2021/07/30 01:39:23;;;;;;;;;9.00;7.75;;;;;17.39;66.22;100766.00;5023374;28;48190;-79
2021/07/30 01:41:48;;;;;;;;;11.00;8.25;;;;;17.39;66.79;100765.19;5022408;28;45519;-78
2021/07/30 01:44:14;;;;;;;;;9.75;8.50;;;;;17.38;66.53;100761.69;5021667;28;45447;-79
2021/07/30 01:46:40;;;;;;;;;10.00;8.00;;;;;17.34;66.28;100760.44;5017374;28;45458;-78
2021/07/30 01:49:05;;;;;;;;;13.50;8.00;;;;;17.33;66.10;100761.47;5020449;28;46219;-78
2021/07/30 01:51:31;;;;;;;;;9.00;8.75;;;;;17.31;66.68;100763.50;5021358;28;45459;-79
2021/07/30 01:53:56;;;;;;;;;8.25;8.25;;;;;17.30;66.50;100759.16;5022443;28;45564;-79
2021/07/30 01:56:21;;;;;;;;;7.00;7.00;;;;;17.29;66.01;100759.34;5030203;28;45560;-79
2021/07/30 01:58:46;;;;;;;;;9.25;8.00;;;;;17.26;66.08;100754.38;5024748;28;46896;-79
2021/07/30 02:01:12;;;;;;;;;9.25;8.00;;;;;17.24;66.52;100757.25;5024281;28;45501;-78
2021/07/30 02:03:37;;;;;;;;;12.50;9.00;;;;;17.23;66.58;100762.78;5028103;28;45510;-79
2021/07/30 02:06:07;;;;;;;;;9.00;8.50;;;;;17.22;67.18;100759.28;5025369;28;45653;-79
2021/07/30 02:08:33;;;;;;;;;7.50;7.50;;;;;17.19;67.30;100759.69;5010752;28;47132;-78
2021/07/30 02:10:59;;;;;;;;;7.25;7.00;;;;;17.19;67.12;100759.69;5006747;28;45459;-79
2021/07/30 02:16:08;;;;;;;;;8.00;7.50;;;;;17.15;66.68;100748.53;5019651;28;45427;-79
2021/07/30 02:18:33;;;;;;;;;8.00;8.00;;;;;17.14;66.55;100743.41;5025468;28;45422;-78
2021/07/30 02:20:59;;;;;;;;;8.50;7.00;;;;;17.13;67.43;100749.75;5009007;28;45819;-78
2021/07/30 02:23:24;;;;;;;;;8.25;8.25;;;;;17.10;67.77;100744.81;5029284;28;45512;-78
2021/07/30 02:25:49;;;;;;;;;8.25;7.75;;;;;17.10;67.42;100750.16;5023568;28;45593;-79
2021/07/30 02:28:14;;;;;;;;;9.00;8.00;;;;;17.09;67.13;100745.84;5025437;28;46155;-79
2021/07/30 02:30:40;;;;;;;;;7.25;7.00;;;;;17.07;67.52;100746.00;5017930;28;55240;-79
2021/07/30 02:33:05;;;;;;;;;8.50;6.50;;;;;17.06;66.96;100751.53;5026326;28;45483;-79
2021/07/30 02:35:30;;;;;;;;;7.00;7.00;;;;;17.05;67.35;100744.56;5029912;28;45486;-78
2021/07/30 02:37:56;;;;;;;;;8.25;8.00;;;;;17.04;67.63;100745.59;5009281;28;48414;-78
2021/07/30 02:40:21;;;;;;;;;9.00;6.25;;;;;17.01;67.13;100735.25;5025842;28;45733;-77
2021/07/30 02:42:46;;;;;;;;;9.00;9.00;;;;;17.03;67.34;100743.91;5024215;28;45560;-78
2021/07/30 02:45:12;;;;;;;;;8.00;7.00;;;;;17.02;67.12;100743.09;5025588;28;45507;-78
2021/07/30 02:47:37;;;;;;;;;9.25;9.00;;;;;17.01;66.96;100738.75;5028907;28;45800;-78
2021/07/30 02:50:03;;;;;;;;;8.25;7.00;;;;;16.98;66.94;100731.94;5024993;28;45915;-78
2021/07/30 02:52:29;;;;;;;;;9.00;7.00;;;;;17.01;66.58;100740.59;5024467;28;45643;-78
2021/07/30 02:54:54;;;;;;;;;8.50;8.00;;;;;17.00;66.80;100736.28;5006389;28;45550;-78
2021/07/30 02:57:19;;;;;;;;;7.25;6.00;;;;;16.95;67.21;100727.00;5023796;28;46529;-78
2021/07/30 02:59:45;;;;;;;;;7.00;7.00;;;;;16.95;67.56;100731.53;5010055;28;46936;-78
2021/07/30 03:02:10;;;;;;;;;8.00;7.00;;;;;16.94;67.60;100729.88;5025876;28;45549;-78
2021/07/30 03:04:35;;;;;;;;;7.00;7.00;;;;;16.92;67.62;100727.41;5022199;28;56706;-78
2021/07/30 03:07:01;;;;;;;;;10.50;8.25;;;;;16.92;67.00;100722.06;5005082;28;47257;-78
2021/07/30 03:09:26;;;;;;;;;7.50;7.00;;;;;16.91;67.36;100712.41;5020563;28;45847;-78
2021/07/30 03:11:51;;;;;;;;;8.00;6.75;;;;;16.94;67.78;100708.53;5025892;28;49008;-78
2021/07/30 03:14:17;;;;;;;;;8.25;8.00;;;;;16.93;67.33;100710.34;5027432;28;45722;-78
2021/07/30 03:16:42;;;;;;;;;6.75;6.00;;;;;16.97;67.47;100714.28;5022540;28;45625;-78
2021/07/30 03:19:07;;;;;;;;;8.00;7.00;;;;;16.98;67.47;100705.25;5024843;28;45458;-78
2021/07/30 03:21:33;;;;;;;;;7.00;7.00;;;;;17.02;67.81;100711.06;5023080;28;45389;-78
2021/07/30 03:23:58;;;;;;;;;8.50;7.00;;;;;17.01;67.54;100705.91;5027024;28;45571;-77
2021/07/30 03:26:23;;;;;;;;;8.25;7.00;;;;;17.01;67.18;100703.22;5026764;28;45717;-78
2021/07/30 03:28:49;;;;;;;;;8.50;7.50;;;;;17.02;66.66;100696.88;5022224;28;49848;-77
2021/07/30 03:31:14;;;;;;;;;7.75;7.00;;;;;17.03;67.07;100693.19;5021968;28;45740;-78
2021/07/30 03:33:40;;;;;;;;;8.50;7.00;;;;;17.03;67.19;100695.84;5023444;28;45537;-78
2021/07/30 03:36:05;;;;;;;;;8.50;6.50;;;;;17.06;67.67;100706.16;5026563;28;55920;-78
2021/07/30 03:38:30;;;;;;;;;9.00;6.75;;;;;17.09;67.99;100705.78;5027036;28;45551;-77
2021/07/30 03:40:56;;;;;;;;;7.50;4.75;;;;;17.11;67.57;100709.06;5023332;28;46630;-78
2021/07/30 03:43:21;;;;;;;;;8.25;7.00;;;;;17.15;67.74;100699.66;5023477;28;45618;-78
2021/07/30 03:45:46;;;;;;;;;7.75;7.00;;;;;17.17;67.41;100702.97;5007544;28;45958;-78
2021/07/30 03:48:12;;;;;;;;;7.50;7.00;;;;;17.19;67.00;100695.59;5022812;28;47460;-78
2021/07/30 03:50:38;;;;;;;;;10.75;8.00;;;;;17.15;66.67;100700.47;5030311;28;45696;-78
2021/07/30 03:53:03;;;;;;;;;8.00;7.00;;;;;17.12;66.32;100695.53;5022762;28;45674;-78
2021/07/30 03:55:32;;;;;;;;;7.50;6.75;;;;;17.11;66.40;100703.72;5023225;28;56490;-78
2021/07/30 03:57:57;;;;;;;;;7.25;6.50;;;;;17.09;66.85;100695.09;5022675;28;45439;-78
2021/07/30 04:00:23;;;;;;;;;9.50;7.75;;;;;17.08;66.95;100709.44;5026515;28;45508;-78
2021/07/30 04:02:48;;;;;;;;;7.50;6.00;;;;;17.08;67.01;100701.44;5026635;28;45666;-77
2021/07/30 04:05:13;;;;;;;;;8.00;6.25;;;;;17.08;67.44;100699.59;5026858;28;51215;-78
2021/07/30 04:07:39;;;;;;;;;10.25;9.00;;;;;17.10;67.99;100696.75;5021579;28;45449;-78
2021/07/30 04:10:04;;;;;;;;;10.00;7.25;;;;;17.13;67.27;100696.34;5021080;28;45590;-79
2021/07/30 04:12:30;;;;;;;;;9.50;9.00;;;;;17.16;66.79;100693.28;5022286;28;45489;-78
2021/07/30 04:14:55;;;;;;;;;8.00;8.00;;;;;17.19;66.63;100700.94;5025078;28;47570;-78
2021/07/30 04:17:20;;;;;;;;;8.25;8.25;;;;;17.16;66.37;100698.63;5025232;28;45769;-77
2021/07/30 04:19:46;;;;;;;;;7.25;7.00;;;;;17.14;66.47;100698.00;5024480;28;45599;-78
2021/07/30 04:22:11;;;;;;;;;11.25;6.75;;;;;17.15;66.62;100696.97;5022500;28;45404;-80
2021/07/30 04:24:37;;;;;;;;;10.00;7.00;;;;;17.13;66.07;100697.16;5022219;28;46372;-81
2021/07/30 04:27:03;;;;;;;;;8.00;6.75;;;;;17.15;66.77;100705.00;5025510;28;45561;-80
2021/07/30 04:29:28;;;;;;;;;10.00;8.00;;;;;17.15;66.21;100694.31;5024132;28;45683;-80
2021/07/30 04:31:53;;;;;;;;;9.25;8.00;;;;;17.15;66.16;100689.78;5023145;28;45556;-80
2021/07/30 04:34:19;;;;;;;;;9.25;6.25;;;;;17.18;66.67;100693.91;5023653;28;46191;-80
2021/07/30 04:36:44;;;;;;;;;8.00;7.00;;;;;17.20;66.41;100691.88;5021367;28;45658;-80
2021/07/30 04:39:10;;;;;;;;;10.00;8.25;;;;;17.22;65.97;100702.38;5028465;28;45466;-79
2021/07/30 04:41:36;;;;;;;;;8.00;8.00;;;;;17.20;66.04;100703.38;5029720;28;45613;-79
2021/07/30 04:44:01;;;;;;;;;7.75;7.75;;;;;17.16;65.90;100702.16;5023053;28;46357;-78
2021/07/30 04:46:26;;;;;;;;;9.25;8.25;;;;;17.11;66.33;100698.38;5024791;28;45514;-83
2021/07/30 04:48:52;;;;;;;;;7.75;6.00;;;;;17.11;66.63;100706.38;5013462;28;45766;-82
2021/07/30 04:51:18;;;;;;;;;8.25;7.75;;;;;17.11;66.96;100703.72;5022082;28;45513;-81
2021/07/30 04:53:45;;;;;;;;;8.25;7.75;;;;;17.11;66.87;100711.72;5023169;28;46328;-75
2021/07/30 04:56:17;;;;;;;;;7.25;7.25;;;;;17.09;66.58;100709.28;5020685;28;46095;-76
2021/07/30 04:58:42;;;;;;;;;9.25;8.50;;;;;17.10;66.34;100715.44;5023970;28;45498;-78
2021/07/30 05:01:07;;;;;;;;;13.00;11.00;;;;;17.07;66.64;100708.63;5022102;28;45674;-80
2021/07/30 05:03:32;;;;;;;;;10.00;8.75;;;;;17.04;66.74;100713.53;5003764;28;52503;-80
2021/07/30 05:05:58;;;;;;;;;8.75;8.00;;;;;16.97;66.66;100705.47;5024624;28;52008;-81
2021/07/30 05:08:24;;;;;;;;;10.00;7.25;;;;;16.91;67.11;100703.53;5008601;28;45384;-81
2021/07/30 05:10:50;;;;;;;;;11.25;9.00;;;;;16.92;67.07;100711.38;5020445;28;45494;-80
2021/07/30 05:13:15;;;;;;;;;10.50;9.50;;;;;16.95;67.30;100713.66;5001959;28;47047;-80
2021/07/30 05:15:41;;;;;;;;;8.25;7.75;;;;;16.97;66.67;100698.28;5022992;28;45550;-79
2021/07/30 05:18:06;;;;;;;;;8.50;8.25;;;;;17.01;67.46;100708.56;5026182;28;45561;-81
2021/07/30 05:20:31;;;;;;;;;6.50;6.00;;;;;17.04;67.54;100702.88;5027709;28;46132;-81
2021/07/30 05:22:57;;;;;;;;;8.50;8.25;;;;;17.11;67.07;100701.03;5022864;28;49628;-81
2021/07/30 05:25:22;;;;;;;;;9.75;9.00;;;;;17.18;67.14;100699.25;5022137;28;50104;-82
2021/07/30 05:27:47;;;;;;;;;10.50;7.50;;;;;17.30;66.83;100705.72;5020744;28;45530;-81
2021/07/30 05:30:13;;;;;;;;;8.00;8.00;;;;;17.39;66.19;100701.91;5028941;28;45670;-81
2021/07/30 05:32:38;;;;;;;;;6.50;6.25;;;;;17.47;66.10;100706.25;5032209;28;46132;-81
2021/07/30 05:35:04;;;;;;;;;7.75;7.75;;;;;17.59;65.93;100706.56;5028720;28;45555;-81
2021/07/30 05:37:29;;;;;;;;;11.50;8.25;;;;;17.71;65.43;100707.66;5023456;28;45715;-80
2021/07/30 05:39:54;;;;;;;;;9.50;6.75;;;;;17.80;65.27;100695.81;5025675;28;45787;-80
2021/07/30 05:42:20;;;;;;;;;9.00;9.00;;;;;17.92;64.62;100700.59;5021817;28;46389;-80
2021/07/30 05:44:45;;;;;;;;;8.25;6.50;;;;;18.00;64.32;100692.41;5026044;28;53995;-78
2021/07/30 05:47:10;;;;;;;;;7.75;7.50;;;;;18.08;64.59;100700.25;5024101;28;45510;-79
2021/07/30 05:49:36;;;;;;;;;8.00;8.00;;;;;18.20;64.19;100689.78;5026484;28;45727;-79
2021/07/30 05:52:01;;;;;;;;;9.00;9.00;;;;;18.30;63.02;100678.72;5024386;28;57116;-79
2021/07/30 05:54:27;;;;;;;;;9.50;8.00;;;;;18.38;63.56;100689.25;5025759;28;45681;-80
2021/07/30 05:56:56;;;;;;;;;9.75;7.75;;;;;18.52;63.78;100692.78;5026319;28;45435;-78
2021/07/30 05:59:23;;;;;;;;;6.50;6.00;;;;;18.68;63.55;100685.19;5028788;28;45737;-79
2021/07/30 06:01:48;;;;;;;;;6.25;5.25;;;;;18.87;63.35;100688.16;5025490;28;45698;-80
2021/07/30 06:04:13;;;;;;;;;9.75;7.50;;;;;19.01;63.01;100683.59;5026954;28;45911;-78
2021/07/30 06:06:38;;;;;;;;;7.50;7.00;;;;;19.14;61.45;100688.97;5019777;28;45813;-79
2021/07/30 06:09:04;;;;;;;;;8.75;7.50;;;;;19.18;61.83;100678.66;5008558;28;49360;-77
2021/07/30 06:11:29;;;;;;;;;7.50;6.25;;;;;19.19;61.14;100688.31;5029094;28;57110;-78
2021/07/30 06:13:54;;;;;;;;;10.50;6.00;;;;;19.21;61.56;100686.28;5005709;28;45706;-80
2021/07/30 06:16:20;;;;;;;;;9.25;8.75;;;;;19.21;60.42;100684.41;5023368;28;49514;-80
2021/07/30 06:18:45;;;;;;;;;9.50;8.00;;;;;19.22;61.72;100682.56;5011779;28;45716;-79
2021/07/30 06:21:11;;;;;;;;;8.75;7.50;;;;;19.27;61.28;100682.78;5010043;28;47729;-80
2021/07/30 06:23:36;;;;;;;;;8.50;7.50;;;;;19.32;61.71;100672.25;5009626;28;45464;-79
2021/07/30 06:26:02;;;;;;;;;6.00;6.00;;;;;19.33;61.13;100674.72;5022873;28;45487;-78
2021/07/30 06:28:27;;;;;;;;;5.50;4.75;;;;;19.30;59.80;100675.13;5022559;28;45657;-78
2021/07/30 06:30:52;;;;;;;;;6.50;6.50;;;;;19.30;60.74;100682.34;5020935;28;45552;-79
2021/07/30 06:33:18;;;;;;;;;6.00;6.00;;;;;19.31;60.28;100670.59;5026162;28;45787;-79
2021/07/30 06:35:48;;;;;;;;;6.50;5.00;;;;;19.34;61.78;100665.66;5026326;28;45466;-78
2021/07/30 06:38:13;;;;;;;;;5.50;5.00;;;;;19.43;61.20;100666.25;5026411;28;45561;-79
2021/07/30 06:40:38;;;;;;;;;4.75;4.75;;;;;19.51;61.44;100667.88;5020024;28;46693;-79
2021/07/30 06:43:03;;;;;;;;;4.25;4.25;;;;;19.56;60.31;100665.41;5026154;28;45821;-76
2021/07/30 06:45:29;;;;;;;;;6.75;6.75;;;;;19.65;60.43;100668.69;5006599;28;45801;-78
2021/07/30 06:47:54;;;;;;;;;5.75;5.75;;;;;19.81;59.69;100670.13;5009340;28;45480;-78
2021/07/30 06:50:20;;;;;;;;;8.75;5.75;;;;;19.95;60.53;100664.50;5024629;28;45813;-77
2021/07/30 06:52:45;;;;;;;;;6.50;6.00;;;;;20.10;60.15;100656.19;5006152;28;45511;-78
2021/07/30 06:55:11;;;;;;;;;7.75;6.00;;;;;20.32;58.44;100653.16;5022589;28;45420;-78
2021/07/30 06:57:36;;;;;;;;;6.75;6.75;;;;;20.44;58.45;100662.16;5022443;28;45797;-78
2021/07/30 07:00:03;;;;;;;;;7.25;5.50;;;;;20.66;58.97;100662.66;5002652;28;47914;-78
2021/07/30 07:02:28;;;;;;;;;7.75;5.75;;;;;20.97;59.24;100663.69;5029594;28;45700;-78
2021/07/30 07:04:53;;;;;;;;;8.00;6.00;;;;;21.26;58.28;100660.31;5026579;28;45702;-78
2021/07/30 07:07:19;;;;;;;;;7.00;6.00;;;;;21.52;57.82;100669.19;5010157;28;45716;-79
2021/07/30 07:09:44;;;;;;;;;9.75;9.75;;;;;21.66;56.56;100678.75;5003474;28;47830;-79
2021/07/30 07:12:10;;;;;;;;;12.25;9.50;;;;;21.58;55.28;100670.16;5000760;28;45505;-79
2021/07/30 07:14:35;;;;;;;;;7.50;6.00;;;;;21.53;56.79;100670.81;5023641;28;45822;-78
2021/07/30 07:17:00;;;;;;;;;4.75;4.75;;;;;21.63;56.30;100676.50;5022511;28;45860;-77
2021/07/30 07:19:26;;;;;;;;;5.00;5.00;;;;;21.65;56.90;100662.84;5023647;28;45756;-78
2021/07/30 07:21:51;;;;;;;;;7.25;5.50;;;;;21.63;56.51;100668.44;5003574;28;45721;-78
2021/07/30 07:24:17;;;;;;;;;5.50;4.25;;;;;21.52;55.92;100665.69;5020398;28;45676;-79
2021/07/30 07:26:43;;;;;;;;;5.25;5.25;;;;;21.45;56.68;100663.06;5031233;28;45513;-79
2021/07/30 07:29:08;;;;;;;;;9.25;6.00;;;;;21.49;57.02;100666.94;5018771;28;46342;-79
2021/07/30 07:31:34;;;;;;;;;7.25;6.00;;;;;21.55;56.23;100663.34;5022860;28;45761;-79
2021/07/30 07:33:59;;;;;;;;;9.75;8.25;;;;;21.54;56.55;100661.72;5005961;28;45476;-79
2021/07/30 07:36:24;;;;;;;;;5.50;5.50;;;;;21.60;56.68;100660.81;5003856;28;45533;-79
2021/07/30 07:38:50;;;;;;;;;8.25;7.50;;;;;21.67;57.08;100653.50;5024981;28;46494;-79
2021/07/30 07:41:15;;;;;;;;;7.00;6.00;;;;;21.68;56.10;100657.81;5023879;28;45825;-79
2021/07/30 07:43:41;;;;;;;;;5.00;5.00;;;;;21.63;54.78;100654.16;5018598;28;45891;-79
2021/07/30 07:46:06;;;;;;;;;6.00;5.00;;;;;21.54;55.66;100647.44;5002925;28;45634;-79
2021/07/30 07:48:31;;;;;;;;;8.25;7.00;;;;;21.58;56.19;100645.94;5017009;28;46022;-78
2021/07/30 07:50:57;;;;;;;;;7.00;7.00;;;;;21.71;56.38;100645.81;5022737;28;45664;-78
2021/07/30 07:53:22;;;;;;;;;7.50;6.00;;;;;21.91;56.73;100653.66;5023775;28;45493;-79
2021/07/30 07:55:51;;;;;;;;;8.00;5.75;;;;;22.26;56.40;100644.94;5023420;28;45652;-78
2021/07/30 07:58:16;;;;;;;;;6.50;5.25;;;;;22.71;54.76;100647.97;5022823;28;46913;-79
2021/07/30 08:00:42;;;;;;;;;5.00;5.00;;;;;23.30;54.08;100642.66;5024137;28;45490;-80
2021/07/30 08:03:07;;;;;;;;;6.00;5.25;;;;;23.93;54.52;100630.22;5022514;28;45682;-79
2021/07/30 08:05:33;;;;;;;;;4.75;4.25;;;;;24.33;52.38;100634.75;5028510;28;45466;-80
2021/07/30 08:07:58;;;;;;;;;5.50;4.00;;;;;24.38;50.50;100626.75;5004000;28;47065;-78
2021/07/30 08:10:24;;;;;;;;;5.00;5.00;;;;;24.17;52.06;100630.13;5014519;28;46086;-78
2021/07/30 08:12:49;;;;;;;;;7.00;4.75;;;;;24.01;52.23;100624.44;5018703;28;46057;-79
2021/07/30 08:15:15;;;;;;;;;4.75;4.75;;;;;23.93;52.34;100630.22;5004778;28;45574;-78
2021/07/30 08:17:40;;;;;;;;;4.00;4.00;;;;;24.23;50.35;100627.28;5022943;28;52483;-77
2021/07/30 08:20:07;;;;;;;;;4.50;3.00;;;;;24.33;50.80;100625.81;5022408;28;45954;-77
2021/07/30 08:22:34;;;;;;;;;5.00;4.00;;;;;24.66;50.55;100622.38;5022423;28;45490;-77
2021/07/30 08:24:59;;;;;;;;;5.50;4.00;;;;;24.80;51.25;100618.28;5020038;28;45732;-78
2021/07/30 08:27:25;;;;;;;;;4.00;4.00;;;;;24.67;50.79;100626.69;5002524;28;48264;-78
2021/07/30 08:29:50;;;;;;;;;6.50;5.00;;;;;24.58;50.39;100626.31;5023629;28;45708;-78
2021/07/30 08:32:17;;;;;;;;;4.50;4.00;;;;;24.33;51.04;100620.41;5020548;28;46264;-77
2021/07/30 08:34:42;;;;;;;;;6.50;5.00;;;;;23.92;51.73;100627.78;5021157;28;45511;-78
2021/07/30 08:37:09;;;;;;;;;3.75;3.75;;;;;23.75;52.61;100627.69;5021819;28;46440;-76
2021/07/30 08:39:34;;;;;;;;;6.00;5.00;;;;;23.69;52.30;100615.97;5021132;28;45676;-76
2021/07/30 08:42:02;;;;;;;;;4.00;2.25;;;;;23.60;52.28;100612.00;5020259;28;45569;-76
2021/07/30 08:44:27;;;;;;;;;5.00;5.00;;;;;23.44;52.32;100618.94;5025574;28;45687;-76
2021/07/30 08:46:54;;;;;;;;;5.25;4.25;;;;;23.21;53.90;100621.66;5022410;28;45974;-76
2021/07/30 08:49:19;;;;;;;;;4.75;4.75;;;;;23.01;53.71;100617.44;5019850;28;45554;-76
2021/07/30 08:51:49;;;;;;;;;5.00;4.00;;;;;22.84;54.17;100620.00;5021110;28;45810;-76
2021/07/30 08:54:15;;;;;;;;;4.75;4.00;;;;;22.72;55.42;100625.38;5004189;28;45733;-76
2021/07/30 08:56:40;;;;;;;;;5.50;5.50;;;;;22.74;55.07;100623.25;5023913;28;45784;-78
2021/07/30 08:59:09;;;;;;;;;3.00;3.00;;;;;22.78;54.93;100622.81;5025525;28;46066;-76
2021/07/30 09:01:35;;;;;;;;;3.50;3.50;;;;;22.69;55.13;100619.63;5023868;28;45446;-77
2021/07/30 09:04:01;;;;;;;;;7.00;4.75;;;;;22.56;55.45;100628.75;5025354;28;45906;-76
2021/07/30 09:06:26;;;;;;;;;4.75;4.75;;;;;22.39;55.51;100620.50;5021217;28;45518;-76
2021/07/30 09:09:01;;;;;;;;;5.00;4.00;;;;;22.28;56.33;100615.91;5005380;28;54900;-76
2021/07/30 09:11:27;;;;;;;;;3.00;3.00;;;;;22.26;56.56;100615.31;5024708;28;45466;-76
2021/07/30 09:13:52;;;;;;;;;4.00;3.00;;;;;22.30;57.00;100616.50;5024081;28;45554;-77
2021/07/30 09:16:18;;;;;;;;;6.00;3.00;;;;;22.34;57.05;100617.69;5023267;28;45530;-77
2021/07/30 09:18:44;;;;;;;;;4.00;3.00;;;;;22.32;57.04;100615.22;5025556;28;45609;-76
2021/07/30 09:21:17;;;;;;;;;4.00;3.75;;;;;22.31;57.52;100608.19;5023716;28;45635;-77
2021/07/30 09:23:47;;;;;;;;;3.00;3.00;;;;;22.37;57.15;100616.41;5025631;28;45505;-76
2021/07/30 09:27:04;;;;;;;;;4.50;4.25;;;;;22.29;57.24;100614.84;5026109;28;45902;-76
2021/07/30 09:29:32;;;;;;;;;4.00;4.00;;;;;22.61;57.61;100618.09;4928131;28;45418;-77
2021/07/30 09:32:04;;;;;;;;;4.25;4.25;;;;;22.88;56.51;100612.28;4923091;28;45825;-77
2021/07/30 09:34:47;;;;;;;;;3.00;2.00;;;;;23.07;56.38;100616.53;4924204;28;46100;-77
2021/07/30 09:37:23;;;;;;;;;4.25;4.25;;;;;23.10;55.92;100607.16;4924983;28;45599;-76
2021/07/30 09:39:51;;;;;;;;;3.25;3.25;;;;;22.94;55.90;100624.81;4934981;28;45655;-77
2021/07/30 09:42:21;;;;;;;;;5.00;3.25;;;;;22.69;56.87;100620.44;4923245;28;45641;-77
2021/07/30 09:44:55;;;;;;;;;5.00;3.25;;;;;22.63;57.67;100625.94;4921963;28;45735;-77
2021/07/30 09:47:22;;;;;;;;;3.00;3.00;;;;;22.63;57.56;100624.06;4907095;28;47737;-76
2021/07/30 09:49:51;;;;;;;;;4.00;3.25;;;;;22.79;57.54;100609.09;4923390;28;45570;-76
2021/07/30 09:52:19;;;;;;;;;4.50;3.00;;;;;22.99;57.23;100603.38;4923843;28;45524;-77
2021/07/30 09:54:54;;;;;;;;;4.75;4.00;;;;;23.27;56.92;100600.00;4924530;28;45596;-79
2021/07/30 09:57:22;;;;;;;;;3.25;3.00;;;;;23.61;55.50;100605.53;4936787;28;47292;-77
2021/07/30 09:59:49;;;;;;;;;4.00;4.00;;;;;23.98;55.26;100606.00;4930348;28;45611;-79
2021/07/30 10:02:19;;;;;;;;;3.00;3.00;;;;;24.22;53.88;100606.72;4925646;28;45692;-79
2021/07/30 10:04:50;;;;;;;;;3.75;3.75;;;;;24.60;55.00;100607.13;4955959;28;45525;-81
2021/07/30 10:07:23;;;;;;;;;3.50;3.50;;;;;24.89;53.07;100605.16;5024166;28;46914;-79
2021/07/30 10:10:03;;;;;;;;;3.50;3.50;;;;;25.03;52.52;100595.63;5019808;28;45484;-78
2021/07/30 10:12:30;;;;;;;;;8.75;7.00;;;;;25.25;52.92;100611.13;5019025;28;45640;-79
2021/07/30 10:14:57;;;;;;;;;8.75;7.00;;;;;25.36;50.11;100614.78;5022196;28;45557;-79
2021/07/30 10:17:27;;;;;;;;;9.00;5.75;;;;;25.00;51.68;100601.56;5027135;28;45518;-79
2021/07/30 10:19:54;;;;;;;;;6.50;5.25;;;;;25.04;51.04;100596.44;5023830;28;45561;-79
2021/07/30 10:22:22;;;;;;;;;4.75;3.00;;;;;24.89;52.11;100603.25;5028544;28;46514;-78
2021/07/30 10:24:52;;;;;;;;;4.00;3.25;;;;;24.76;52.31;100595.50;5023153;28;45549;-79
2021/07/30 10:27:20;;;;;;;;;3.50;3.25;;;;;24.59;52.54;100595.50;5025739;28;45661;-80
2021/07/30 10:30:16;;;;;;;;;5.00;4.00;;;;;24.42;53.13;100595.47;5029370;28;46003;-81
2021/07/30 10:32:43;;;;;;;;;4.00;3.00;;;;;24.85;53.62;100599.44;5026832;28;45497;-81
2021/07/30 10:35:09;;;;;;;;;3.75;3.75;;;;;25.44;52.19;100590.78;5010369;28;45483;-82
2021/07/30 10:37:36;;;;;;;;;6.25;4.00;;;;;25.99;51.21;100574.66;5006240;28;47900;-79
2021/07/30 10:40:21;;;;;;;;;4.00;4.00;;;;;26.61;48.81;100587.72;5003437;28;45595;-80
2021/07/30 10:43:09;;;;;;;;;4.75;4.00;;;;;27.30;46.66;100583.25;5019798;28;45632;-79
2021/07/30 10:45:35;;;;;;;;;4.00;4.00;;;;;28.16;48.42;100573.78;5020167;28;45569;-79
2021/07/30 10:48:13;;;;;;;;;2.75;2.75;;;;;28.73;46.48;100569.97;5019753;28;50253;-80
2021/07/30 10:50:48;;;;;;;;;3.00;3.00;;;;;28.81;43.88;100574.03;5026701;28;45497;-80
2021/07/30 10:53:36;;;;;;;;;4.50;3.00;;;;;28.65;43.74;100570.53;5026994;28;45394;-80
2021/07/30 10:56:06;;;;;;;;;5.00;5.00;;;;;28.72;45.49;100568.34;5019715;28;45612;-81
2021/07/30 10:58:43;;;;;;;;;2.25;2.25;;;;;28.85;44.12;100572.41;5019123;28;46960;-81
2021/07/30 11:01:19;;;;;;;;;3.00;2.25;;;;;28.69;41.45;100574.34;5004799;28;46235;-81
2021/07/30 11:03:53;;;;;;;;;3.00;3.00;;;;;28.94;43.85;100570.75;5021502;28;45466;-80
2021/07/30 11:06:50;;;;;;;;;2.00;1.75;;;;;29.39;43.31;100573.63;5022694;28;45617;-80
2021/07/30 11:09:18;;;;;;;;;3.50;2.50;;;;;29.71;41.21;100571.31;5014440;28;45583;-80
2021/07/30 11:11:45;;;;;;;;;3.50;1.50;;;;;29.46;41.86;100571.44;5020868;28;45631;-82
2021/07/30 11:14:14;;;;;;;;;3.00;1.75;;;;;29.65;43.00;100575.16;5024399;28;45563;-81
2021/07/30 11:16:41;;;;;;;;;3.25;1.75;;;;;30.42;42.49;100564.56;5022425;28;45414;-81
2021/07/30 11:19:07;;;;;;;;;2.75;1.75;;;;;30.48;40.48;100562.59;5022642;28;45749;-81
2021/07/30 11:21:33;;;;;;;;;2.25;2.25;;;;;30.07;40.75;100579.28;5005617;28;45560;-80
2021/07/30 11:24:01;;;;;;;;;1.00;1.00;;;;;29.71;40.78;100576.75;5023037;28;45542;-81
2021/07/30 11:26:28;;;;;;;;;1.25;1.25;;;;;29.86;41.59;100572.31;5024175;28;45574;-81